METAR-TAF

Aéroport de Béziers-Cap d'Agde

Béziers, France

latitude: 43-19N, longitude: 003-21E, altitude: 17 m

Observation

Le bulletin a été fait il y a 21 minutes, à 20:00 UTC
Vent 12 kt de ouest
Température 17°C
Humidité 77%
Pression 1005 hPa
Visibilité 10 km ou plus
pas de nuages en-dessous de 1500 mètres et pas de cumulonimbus.

METAR: LFMU 282000Z AUTO 26012KT CAVOK 17/13 Q1005 BECMG 27015G25KT

Heure: 22:21 (20:21 UTC)

Prévision

Le bulletin a été fait il y a 6 heures et 21 minutes, à 14:00 UTC
Prévision valable du 28 à 15 UTC au 29 à 15 UTC
Vent 15 kt de ouest avec des rafales jusqu'à 25 kt
Visibilité 10 km ou plus
Quelques nuages à une hauteur de 3000 ft
Nuages fragmentés à une hauteur de 11000 ft
Nuages fragmentés à une hauteur de 20000 ft
Evoluant progressivement
du 29 à 07 UTC au 29 à 09 UTC
Vent 10 kt de nord-ouest

TAF: LFMU 281400Z 2815/2915 27015G25KT 9999 FEW030 BKN110 BKN200 BECMG 2907/2909 32010KT